createdAt,value
2019-05-18T00:00:53.743Z,99.90
2019-05-18T00:03:23.036Z,99.90
2019-05-18T00:05:52.434Z,99.90
2019-05-18T00:08:21.886Z,99.90
2019-05-18T00:10:51.284Z,99.90
2019-05-18T00:13:20.641Z,99.90
2019-05-18T00:15:50.088Z,99.90
2019-05-18T00:18:19.817Z,99.90
2019-05-18T00:20:49.296Z,99.90
2019-05-18T00:23:18.740Z,99.90
2019-05-18T00:25:48.131Z,99.90
2019-05-18T00:28:17.558Z,99.90
2019-05-18T00:30:46.957Z,99.90
2019-05-18T00:33:16.431Z,99.90
2019-05-18T00:35:45.816Z,99.90
2019-05-18T00:38:15.196Z,99.90
2019-05-18T00:40:44.601Z,99.90
2019-05-18T00:43:13.960Z,99.90
2019-05-18T00:45:43.300Z,99.90
2019-05-18T00:48:12.716Z,99.90
2019-05-18T00:50:42.093Z,99.90
2019-05-18T00:53:11.536Z,99.90
2019-05-18T00:55:40.926Z,99.90
2019-05-18T00:58:10.308Z,99.90
2019-05-18T01:00:39.759Z,99.90
2019-05-18T01:03:09.200Z,99.90
2019-05-18T01:05:38.582Z,99.90
2019-05-18T01:08:07.979Z,99.90
2019-05-18T01:10:37.392Z,99.90
2019-05-18T01:13:06.813Z,99.90
2019-05-18T01:15:36.337Z,99.90
2019-05-18T01:18:05.740Z,99.90
2019-05-18T01:20:35.079Z,99.90
2019-05-18T01:23:04.489Z,99.90
2019-05-18T01:25:33.860Z,99.90
2019-05-18T01:28:03.246Z,99.90
2019-05-18T01:30:32.621Z,99.90
2019-05-18T01:33:02.010Z,99.90
2019-05-18T01:35:31.397Z,99.90
2019-05-18T01:38:00.802Z,99.90
2019-05-18T01:40:30.264Z,99.90
2019-05-18T01:42:59.737Z,99.90
2019-05-18T01:45:29.132Z,99.90
2019-05-18T01:48:12.838Z,99.90
2019-05-18T01:50:29.547Z,99.90
2019-05-18T01:52:58.915Z,99.90
2019-05-18T01:55:28.312Z,99.90
2019-05-18T01:57:57.717Z,99.90
2019-05-18T02:00:27.213Z,99.90
2019-05-18T02:02:56.681Z,99.90
2019-05-18T02:05:26.128Z,99.90
2019-05-18T02:07:55.462Z,99.90
2019-05-18T02:10:24.872Z,99.90
2019-05-18T02:12:54.251Z,99.90
2019-05-18T02:15:23.596Z,99.90
2019-05-18T02:17:52.999Z,99.90
2019-05-18T02:20:22.390Z,99.90
2019-05-18T02:22:51.842Z,99.90
2019-05-18T02:25:21.134Z,99.90
2019-05-18T02:27:50.532Z,99.90
2019-05-18T02:30:20.171Z,99.90
2019-05-18T02:32:49.526Z,99.90
2019-05-18T02:35:18.961Z,99.90
2019-05-18T02:37:48.375Z,99.90
2019-05-18T02:40:17.882Z,99.90
2019-05-18T02:42:47.304Z,99.90
2019-05-18T02:45:16.694Z,99.90
2019-05-18T02:47:46.081Z,99.90
2019-05-18T02:50:15.482Z,99.90
2019-05-18T02:52:44.908Z,99.90
2019-05-18T02:55:14.301Z,99.90
2019-05-18T02:57:43.698Z,99.90
2019-05-18T03:00:13.066Z,99.90
2019-05-18T03:02:42.390Z,99.90
2019-05-18T03:05:11.913Z,99.90
2019-05-18T03:07:41.321Z,99.90
2019-05-18T03:10:10.936Z,99.90
2019-05-18T03:12:40.286Z,99.90
2019-05-18T03:15:09.932Z,99.90
2019-05-18T03:17:39.335Z,99.90
2019-05-18T03:20:08.941Z,99.90
2019-05-18T03:22:38.404Z,99.90
2019-05-18T03:25:08.112Z,99.90
2019-05-18T03:27:37.536Z,99.90
2019-05-18T03:30:07.301Z,99.90
2019-05-18T03:32:36.672Z,99.90
2019-05-18T03:35:06.210Z,99.90
2019-05-18T03:37:35.598Z,99.90
2019-05-18T03:40:05.450Z,99.90
2019-05-18T03:42:34.822Z,99.90
2019-05-18T03:45:04.396Z,99.90
2019-05-18T03:47:33.811Z,99.90
2019-05-18T03:50:03.198Z,99.90
2019-05-18T03:52:32.568Z,99.90
2019-05-18T03:55:01.953Z,99.90
2019-05-18T03:57:31.324Z,99.90
2019-05-18T04:00:01.203Z,99.90
2019-05-18T04:02:30.625Z,99.90
2019-05-18T04:05:00.025Z,99.90
2019-05-18T04:07:29.393Z,99.90
2019-05-18T04:09:58.701Z,99.90
2019-05-18T04:12:28.099Z,99.90
2019-05-18T04:14:57.414Z,99.90
2019-05-18T04:17:26.813Z,99.90
2019-05-18T04:19:56.182Z,99.90
2019-05-18T04:22:25.627Z,99.90
2019-05-18T04:24:55.020Z,99.90
2019-05-18T04:27:24.406Z,99.90
2019-05-18T04:29:53.840Z,99.90
2019-05-18T04:32:23.262Z,99.90
2019-05-18T04:34:52.667Z,99.90
2019-05-18T04:37:22.054Z,99.90
2019-05-18T04:39:51.479Z,99.90
2019-05-18T04:42:20.849Z,99.90
2019-05-18T04:44:50.256Z,99.90
2019-05-18T04:47:19.699Z,99.90
2019-05-18T04:50:03.944Z,99.90
2019-05-18T04:52:20.050Z,99.90
2019-05-18T04:54:49.480Z,99.90
2019-05-18T04:57:18.875Z,99.90
2019-05-18T04:59:48.279Z,99.90
2019-05-18T05:02:17.658Z,99.90
2019-05-18T05:04:47.053Z,99.90
2019-05-18T05:07:16.453Z,99.90
2019-05-18T05:09:45.864Z,99.90
2019-05-18T05:12:15.276Z,99.90
2019-05-18T05:14:44.649Z,99.90
2019-05-18T05:17:14.090Z,99.90
2019-05-18T05:19:43.460Z,99.90
2019-05-18T05:22:12.861Z,99.90
2019-05-18T05:24:42.269Z,99.90
2019-05-18T05:27:11.646Z,99.90
2019-05-18T05:29:41.034Z,99.90
2019-05-18T05:32:10.409Z,99.90
2019-05-18T05:34:39.821Z,99.90
2019-05-18T05:37:09.214Z,99.90
2019-05-18T05:39:38.481Z,99.90
2019-05-18T05:42:07.778Z,99.90
2019-05-18T05:44:37.217Z,99.90
2019-05-18T05:47:06.696Z,99.90
2019-05-18T05:49:36.039Z,99.90
2019-05-18T05:52:05.671Z,99.90
2019-05-18T05:54:34.948Z,99.90
2019-05-18T05:57:04.255Z,99.90
2019-05-18T05:59:33.649Z,99.90
2019-05-18T06:02:02.951Z,99.90
2019-05-18T06:04:32.276Z,99.90
2019-05-18T06:07:01.574Z,99.90
2019-05-18T06:09:31.002Z,99.90
2019-05-18T06:12:00.372Z,99.90
2019-05-18T06:14:29.672Z,99.90
2019-05-18T06:16:59.052Z,99.90
2019-05-18T06:19:28.485Z,99.90
2019-05-18T06:21:57.771Z,99.90
2019-05-18T06:24:27.318Z,99.90
2019-05-18T06:26:56.626Z,99.90
2019-05-18T06:29:26.076Z,99.90
2019-05-18T06:31:55.480Z,99.90
2019-05-18T06:34:24.879Z,99.90
2019-05-18T06:36:55.959Z,99.90
2019-05-18T06:39:25.498Z,99.90
2019-05-18T06:41:54.949Z,99.90
2019-05-18T06:44:24.346Z,99.90
2019-05-18T06:46:53.736Z,99.90
2019-05-18T06:49:23.123Z,99.90
2019-05-18T06:51:52.490Z,99.90
2019-05-18T06:54:21.862Z,99.90
2019-05-18T06:56:53.388Z,99.90
2019-05-18T06:59:23.287Z,99.90
2019-05-18T07:01:52.667Z,99.90
2019-05-18T07:04:22.032Z,99.70
2019-05-18T07:06:51.368Z,99.80
2019-05-18T07:09:20.767Z,99.30
2019-05-18T07:11:50.132Z,99.10
2019-05-18T07:14:25.800Z,98.80
2019-05-18T07:16:50.561Z,98.70
2019-05-18T07:19:19.947Z,98.30
2019-05-18T07:21:49.340Z,98.30
2019-05-18T07:24:18.796Z,98.30
2019-05-18T07:26:48.236Z,98.10
2019-05-18T07:29:17.695Z,97.70
2019-05-18T07:31:47.110Z,97.20
2019-05-18T07:34:16.578Z,97.00
2019-05-18T07:36:45.935Z,96.60
2019-05-18T07:39:15.323Z,96.70
2019-05-18T07:41:47.094Z,96.60
2019-05-18T07:44:15.896Z,96.50
2019-05-18T07:46:45.555Z,96.40
2019-05-18T07:49:15.041Z,96.30
2019-05-18T07:51:44.356Z,96.00
2019-05-18T07:54:13.752Z,96.10
2019-05-18T07:56:43.162Z,95.90
2019-05-18T07:59:12.539Z,95.70
2019-05-18T08:01:41.967Z,95.80
2019-05-18T08:04:11.364Z,95.60
2019-05-18T08:06:40.777Z,95.20
2019-05-18T08:09:10.120Z,94.60
2019-05-18T08:11:39.833Z,94.10
2019-05-18T08:14:09.246Z,94.00
2019-05-18T08:16:38.645Z,94.00
2019-05-18T08:19:08.210Z,94.00
2019-05-18T08:21:50.868Z,93.80
2019-05-18T08:24:08.697Z,93.70
2019-05-18T08:26:38.069Z,93.50
2019-05-18T08:29:07.512Z,93.20
2019-05-18T08:31:36.903Z,93.00
2019-05-18T08:34:06.284Z,93.30
2019-05-18T08:36:35.695Z,93.40
2019-05-18T08:39:06.054Z,93.40
2019-05-18T08:41:35.501Z,93.50
2019-05-18T08:44:04.862Z,92.60
2019-05-18T08:46:34.265Z,92.60
2019-05-18T08:49:03.655Z,92.10
2019-05-18T08:51:33.054Z,91.70
2019-05-18T08:54:02.433Z,91.30
2019-05-18T08:56:31.795Z,91.40
2019-05-18T08:59:01.170Z,91.30
2019-05-18T09:01:30.587Z,91.10
2019-05-18T09:04:00.138Z,90.30
2019-05-18T09:06:29.495Z,88.90
2019-05-18T09:08:59.149Z,87.70
2019-05-18T09:11:28.531Z,86.60
2019-05-18T09:13:57.938Z,85.40
2019-05-18T09:16:27.667Z,85.30
2019-05-18T09:18:56.986Z,86.00
2019-05-18T09:21:26.420Z,86.60
2019-05-18T09:23:55.828Z,86.20
2019-05-18T09:26:25.272Z,85.20
2019-05-18T09:28:54.721Z,85.00
2019-05-18T09:31:24.119Z,84.10
2019-05-18T09:33:53.537Z,84.30
2019-05-18T09:36:22.955Z,83.60
2019-05-18T09:38:52.470Z,83.30
2019-05-18T09:41:21.900Z,84.10
2019-05-18T09:43:51.728Z,83.90
2019-05-18T09:46:21.112Z,82.60
2019-05-18T09:48:50.500Z,79.50
2019-05-18T09:51:19.869Z,79.80
2019-05-18T09:53:51.570Z,78.90
2019-05-18T09:56:20.380Z,77.10
2019-05-18T09:58:49.820Z,76.40
2019-05-18T10:01:19.238Z,75.90
2019-05-18T10:03:48.671Z,76.20
2019-05-18T10:06:18.920Z,76.20
2019-05-18T10:08:48.361Z,75.00
2019-05-18T10:11:17.791Z,72.70
2019-05-18T10:13:47.200Z,73.10
2019-05-18T10:16:16.851Z,73.40
2019-05-18T10:18:46.713Z,75.00
2019-05-18T10:21:16.602Z,75.70
2019-05-18T10:23:46.155Z,75.20
2019-05-18T10:26:15.835Z,75.40
2019-05-18T10:28:45.299Z,74.10
2019-05-18T10:31:14.634Z,73.50
2019-05-18T10:33:44.020Z,74.20
2019-05-18T10:36:13.426Z,74.30
2019-05-18T10:38:42.803Z,74.00
2019-05-18T10:41:12.221Z,72.90
2019-05-18T10:43:41.671Z,74.20
2019-05-18T10:46:11.035Z,73.70
2019-05-18T10:48:40.549Z,73.50
2019-05-18T10:51:09.924Z,73.00
2019-05-18T10:53:39.308Z,70.80
2019-05-18T10:56:08.809Z,69.60
2019-05-18T10:58:38.292Z,70.60
2019-05-18T11:01:07.659Z,70.60
2019-05-18T11:03:37.044Z,70.80
2019-05-18T11:06:06.445Z,71.00
2019-05-18T11:08:38.379Z,70.60
2019-05-18T11:11:06.909Z,70.10
2019-05-18T11:13:36.592Z,68.20
2019-05-18T11:16:06.006Z,66.20
2019-05-18T11:18:35.390Z,64.90
2019-05-18T11:21:04.781Z,63.90
2019-05-18T11:23:43.087Z,63.70
2019-05-18T11:26:07.476Z,63.10
2019-05-18T11:28:36.878Z,63.10
2019-05-18T11:31:06.268Z,61.90
2019-05-18T11:33:35.605Z,60.60
2019-05-18T11:36:04.980Z,59.40
2019-05-18T11:38:34.779Z,58.70
2019-05-18T11:41:04.211Z,57.40
2019-05-18T11:43:33.622Z,55.80
2019-05-18T11:46:03.564Z,55.90
2019-05-18T11:48:35.012Z,56.70
2019-05-18T11:51:04.835Z,56.30
2019-05-18T11:53:34.147Z,55.00
2019-05-18T11:56:03.568Z,54.60
2019-05-18T11:58:32.954Z,54.00
2019-05-18T12:01:02.446Z,51.40
2019-05-18T12:03:31.927Z,50.00
2019-05-18T12:06:01.332Z,48.70
2019-05-18T12:08:31.044Z,48.50
2019-05-18T12:11:01.404Z,49.40
2019-05-18T12:13:31.108Z,50.10
2019-05-18T12:16:00.445Z,50.10
2019-05-18T12:18:29.810Z,50.90
2019-05-18T12:20:59.324Z,51.20
2019-05-18T12:23:28.739Z,48.50
2019-05-18T12:25:58.139Z,46.60
2019-05-18T12:28:27.524Z,43.40
2019-05-18T12:30:56.938Z,41.60
2019-05-18T12:33:26.318Z,42.30
2019-05-18T12:35:55.665Z,43.40
2019-05-18T12:38:25.065Z,43.80
2019-05-18T12:40:54.939Z,42.50
2019-05-18T12:43:24.327Z,40.50
2019-05-18T12:45:53.638Z,39.60
2019-05-18T12:48:23.137Z,41.00
2019-05-18T12:50:52.587Z,42.30
2019-05-18T12:53:22.878Z,44.40
2019-05-18T12:55:52.523Z,45.70
2019-05-18T12:58:21.911Z,46.30
2019-05-18T13:00:51.303Z,46.80
2019-05-18T13:03:20.697Z,45.00
2019-05-18T13:05:50.125Z,40.80
2019-05-18T13:08:19.523Z,37.20
2019-05-18T13:10:48.887Z,34.90
2019-05-18T13:13:18.300Z,34.20
2019-05-18T13:15:47.758Z,35.50
2019-05-18T13:18:17.112Z,37.80
2019-05-18T13:20:46.568Z,38.70
2019-05-18T13:23:15.925Z,39.90
2019-05-18T13:25:45.308Z,42.00
2019-05-18T13:28:14.695Z,44.10
2019-05-18T13:30:44.068Z,46.00
2019-05-18T13:33:13.474Z,46.90
2019-05-18T13:35:45.539Z,47.80
2019-05-18T13:38:14.040Z,47.50
2019-05-18T13:40:43.655Z,47.20
2019-05-18T13:43:13.132Z,46.40
2019-05-18T13:45:42.527Z,46.10
2019-05-18T13:48:11.953Z,45.50
2019-05-18T13:50:44.327Z,46.00
2019-05-18T13:53:12.373Z,45.60
2019-05-18T13:55:41.790Z,46.60
2019-05-18T13:58:11.204Z,47.40
2019-05-18T14:00:40.648Z,47.90
2019-05-18T14:03:10.030Z,48.60
2019-05-18T14:05:39.882Z,49.20
2019-05-18T14:08:09.367Z,50.80
2019-05-18T14:10:38.760Z,51.10
2019-05-18T14:13:08.182Z,52.00
2019-05-18T14:15:37.577Z,52.80
2019-05-18T14:18:06.999Z,53.50
2019-05-18T14:20:36.408Z,53.30
2019-05-18T14:23:05.816Z,53.70
2019-05-18T14:25:35.277Z,53.60
2019-05-18T14:28:04.990Z,53.80
2019-05-18T14:30:34.388Z,54.40
2019-05-18T14:33:04.014Z,54.00
2019-05-18T14:35:33.674Z,54.70
2019-05-18T14:38:03.510Z,54.10
2019-05-18T14:40:32.874Z,54.70
2019-05-18T14:43:02.260Z,55.10
2019-05-18T14:45:31.676Z,55.10
2019-05-18T14:48:01.028Z,55.50
2019-05-18T14:50:30.411Z,55.70
2019-05-18T14:52:59.703Z,55.80
2019-05-18T14:55:33.741Z,59.90
2019-05-18T14:58:00.081Z,62.50
2019-05-18T15:00:29.456Z,64.00
2019-05-18T15:02:58.781Z,64.10
2019-05-18T15:05:28.149Z,64.00
2019-05-18T15:07:57.501Z,64.20
2019-05-18T15:10:27.235Z,63.80
2019-05-18T15:12:56.582Z,61.90
2019-05-18T15:15:25.969Z,56.70
2019-05-18T15:17:55.457Z,53.20
2019-05-18T15:20:25.090Z,51.00
2019-05-18T15:22:54.465Z,49.80
2019-05-18T15:25:23.797Z,48.60
2019-05-18T15:27:53.112Z,48.90
2019-05-18T15:30:22.697Z,49.90
2019-05-18T15:32:52.066Z,50.70
2019-05-18T15:35:21.456Z,51.70
2019-05-18T15:37:50.881Z,51.10
2019-05-18T15:40:20.276Z,49.00
2019-05-18T15:42:49.683Z,48.70
2019-05-18T15:45:19.372Z,48.10
2019-05-18T15:47:48.689Z,49.20
2019-05-18T15:50:19.876Z,49.60
2019-05-18T15:52:49.184Z,49.90
2019-05-18T15:55:18.573Z,52.00
2019-05-18T15:57:47.976Z,54.10
2019-05-18T16:00:17.574Z,55.50
2019-05-18T16:02:46.944Z,56.30
2019-05-18T16:05:17.504Z,56.90
2019-05-18T16:07:46.962Z,57.10
2019-05-18T16:10:17.127Z,56.50
2019-05-18T16:12:46.508Z,56.40
2019-05-18T16:15:16.102Z,56.50
2019-05-18T16:17:45.511Z,57.60
2019-05-18T16:20:15.623Z,58.20
2019-05-18T16:22:45.310Z,58.40
2019-05-18T16:25:14.852Z,58.80
2019-05-18T16:27:44.202Z,58.80
2019-05-18T16:30:14.191Z,59.30
2019-05-18T16:32:43.646Z,59.80
2019-05-18T16:35:13.368Z,59.70
2019-05-18T16:37:42.749Z,59.90
2019-05-18T16:40:12.408Z,60.00
2019-05-18T16:42:41.755Z,60.00
2019-05-18T16:45:11.504Z,60.40
2019-05-18T16:47:40.764Z,60.40
2019-05-18T16:50:10.587Z,60.70
2019-05-18T16:52:39.864Z,60.80
2019-05-18T16:55:09.748Z,60.90
2019-05-18T16:57:39.031Z,60.50
2019-05-18T17:00:09.956Z,59.20
2019-05-18T17:02:39.256Z,57.70
2019-05-18T17:05:09.512Z,56.70
2019-05-18T17:07:38.984Z,56.80
2019-05-18T17:10:08.608Z,55.80
2019-05-18T17:12:37.986Z,54.10
2019-05-18T17:15:07.800Z,54.70
2019-05-18T17:17:37.342Z,54.90
2019-05-18T17:20:07.329Z,55.90
2019-05-18T17:22:36.745Z,56.10
2019-05-18T17:25:06.894Z,56.00
2019-05-18T17:27:36.276Z,56.80
2019-05-18T17:30:06.843Z,57.20
2019-05-18T17:32:36.257Z,58.10
2019-05-18T17:35:06.017Z,58.20
2019-05-18T17:37:35.389Z,57.90
2019-05-18T17:40:05.341Z,57.90
2019-05-18T17:42:34.718Z,58.10
2019-05-18T17:45:04.132Z,58.00
2019-05-18T17:47:33.540Z,58.60
2019-05-18T17:50:02.918Z,59.70
2019-05-18T17:52:32.342Z,61.10
2019-05-18T17:55:01.747Z,62.00
2019-05-18T17:57:31.141Z,62.50
2019-05-18T18:00:00.560Z,64.00
2019-05-18T18:02:30.059Z,65.00
2019-05-18T18:04:59.457Z,66.00
2019-05-18T18:07:28.878Z,66.70
2019-05-18T18:09:58.247Z,67.40
2019-05-18T18:12:27.669Z,68.00
2019-05-18T18:14:57.229Z,68.30
2019-05-18T18:17:26.634Z,68.60
2019-05-18T18:19:56.034Z,69.30
2019-05-18T18:22:25.432Z,70.20
2019-05-18T18:24:54.956Z,70.80
2019-05-18T18:27:26.679Z,70.90
2019-05-18T18:29:55.376Z,70.60
2019-05-18T18:32:24.885Z,70.80
2019-05-18T18:34:54.253Z,70.60
2019-05-18T18:37:23.649Z,70.80
2019-05-18T18:39:53.145Z,71.50
2019-05-18T18:42:22.517Z,71.80
2019-05-18T18:44:51.829Z,72.20
2019-05-18T18:47:21.244Z,72.90
2019-05-18T18:49:50.529Z,73.50
2019-05-18T18:52:19.915Z,74.40
2019-05-18T18:54:49.211Z,75.00
2019-05-18T18:57:18.631Z,75.30
2019-05-18T18:59:47.911Z,75.80
2019-05-18T19:02:17.205Z,76.20
2019-05-18T19:04:46.636Z,76.80
2019-05-18T19:07:16.221Z,77.20
2019-05-18T19:09:45.589Z,77.30
2019-05-18T19:12:14.947Z,78.30
2019-05-18T19:14:44.326Z,79.40
2019-05-18T19:17:13.692Z,80.60
2019-05-18T19:19:43.052Z,81.30
2019-05-18T19:22:12.432Z,81.90
2019-05-18T19:24:41.728Z,82.40
2019-05-18T19:27:11.191Z,82.90
2019-05-18T19:29:40.584Z,82.40
2019-05-18T19:32:09.999Z,81.10
2019-05-18T19:34:39.552Z,80.30
2019-05-18T19:37:08.969Z,79.50
2019-05-18T19:39:38.352Z,80.10
2019-05-18T19:42:07.650Z,80.60
2019-05-18T19:44:36.964Z,81.10
2019-05-18T19:47:06.362Z,81.80
2019-05-18T19:49:35.846Z,82.50
2019-05-18T19:52:05.212Z,84.30
2019-05-18T19:54:34.563Z,85.10
2019-05-18T19:57:04.103Z,86.60
2019-05-18T19:59:33.468Z,87.50
2019-05-18T20:02:02.891Z,88.40
2019-05-18T20:04:32.257Z,89.40
2019-05-18T20:07:01.669Z,90.20
2019-05-18T20:09:31.100Z,90.60
2019-05-18T20:12:00.662Z,91.30
2019-05-18T20:14:30.073Z,92.40
2019-05-18T20:16:59.486Z,93.50
2019-05-18T20:19:38.638Z,94.00
2019-05-18T20:21:59.825Z,95.70
2019-05-18T20:24:29.280Z,96.20
2019-05-18T20:26:58.619Z,97.40
2019-05-18T20:29:28.062Z,96.90
2019-05-18T20:31:57.578Z,98.30
2019-05-18T20:34:26.975Z,98.20
2019-05-18T20:36:56.425Z,98.40
2019-05-18T20:39:25.883Z,98.80
2019-05-18T20:41:55.351Z,99.60
2019-05-18T20:44:24.834Z,99.10
2019-05-18T20:46:54.251Z,99.60
2019-05-18T20:49:23.752Z,99.40
2019-05-18T20:51:53.084Z,99.50
2019-05-18T20:54:22.491Z,99.60
2019-05-18T20:56:51.980Z,99.70
2019-05-18T20:59:21.412Z,99.60
2019-05-18T21:01:50.822Z,99.90
2019-05-18T21:04:20.274Z,99.60
2019-05-18T21:06:50.521Z,99.40
2019-05-18T21:09:22.585Z,99.50
2019-05-18T21:11:52.069Z,99.90
2019-05-18T21:14:21.572Z,99.90
2019-05-18T21:16:51.377Z,99.90
2019-05-18T21:19:21.048Z,99.90
2019-05-18T21:21:50.432Z,99.90
2019-05-18T21:24:21.728Z,99.80
2019-05-18T21:26:52.655Z,99.40
2019-05-18T21:29:28.454Z,99.10
2019-05-18T21:31:57.912Z,99.30
2019-05-18T21:34:27.467Z,99.50
2019-05-18T21:36:57.136Z,99.50
2019-05-18T21:39:26.666Z,99.60
2019-05-18T21:41:56.092Z,99.70
2019-05-18T21:44:27.925Z,99.60
2019-05-18T21:46:57.522Z,99.40
2019-05-18T21:49:28.165Z,99.40
2019-05-18T21:51:57.601Z,99.30
2019-05-18T21:54:27.055Z,99.00
2019-05-18T21:57:01.119Z,98.90
2019-05-18T21:59:32.681Z,98.90
2019-05-18T22:02:01.629Z,98.80
2019-05-18T22:04:31.216Z,98.80
2019-05-18T22:07:03.225Z,98.60
2019-05-18T22:09:35.682Z,98.60
2019-05-18T22:12:05.154Z,98.70
2019-05-18T22:14:38.501Z,98.90
2019-05-18T22:17:08.099Z,98.80
2019-05-18T22:19:40.443Z,98.80
2019-05-18T22:22:11.520Z,99.30
2019-05-18T22:24:41.123Z,99.30
2019-05-18T22:27:10.630Z,99.30
2019-05-18T22:29:40.222Z,99.60
2019-05-18T22:32:09.763Z,99.60
2019-05-18T22:34:42.218Z,99.60
2019-05-18T22:37:13.225Z,99.80
2019-05-18T22:39:45.701Z,99.80
2019-05-18T22:42:15.141Z,99.90
2019-05-18T22:44:44.890Z,99.90
2019-05-18T22:47:14.678Z,99.90
2019-05-18T22:49:44.132Z,99.90
2019-05-18T22:52:13.610Z,99.90
2019-05-18T22:54:43.051Z,99.90
2019-05-18T22:57:12.804Z,99.90
2019-05-18T22:59:45.040Z,99.90
2019-05-18T23:02:14.500Z,99.90
2019-05-18T23:04:44.132Z,99.90
2019-05-18T23:07:13.563Z,99.90
2019-05-18T23:09:43.004Z,99.90
2019-05-18T23:12:14.123Z,99.90
2019-05-18T23:14:43.848Z,99.90
2019-05-18T23:17:13.378Z,99.90
2019-05-18T23:19:45.673Z,99.90
2019-05-18T23:22:15.383Z,99.90
2019-05-18T23:24:47.228Z,99.90
2019-05-18T23:27:22.776Z,99.90
2019-05-18T23:29:52.170Z,99.90
2019-05-18T23:32:21.909Z,99.90
2019-05-18T23:34:51.301Z,99.90
2019-05-18T23:37:20.769Z,99.90
2019-05-18T23:39:50.329Z,99.90
2019-05-18T23:42:20.017Z,99.90
2019-05-18T23:44:49.491Z,99.90
2019-05-18T23:47:18.957Z,99.90
2019-05-18T23:49:48.261Z,99.90
2019-05-18T23:52:17.661Z,99.90
2019-05-18T23:54:47.742Z,99.90
2019-05-18T23:57:17.105Z,99.90
2019-05-18T23:59:46.521Z,99.90
